createdAt,value
2023-06-08T00:00:21.254Z,100012.72
2023-06-08T00:05:24.630Z,100006.94
2023-06-08T00:10:27.709Z,100009.38
2023-06-08T00:15:31.339Z,100005.06
2023-06-08T00:20:36.034Z,100010.22
2023-06-08T00:25:38.977Z,100004.44
2023-06-08T00:30:41.768Z,100007.13
2023-06-08T00:35:44.596Z,99996.59
2023-06-08T00:40:47.684Z,99998.03
2023-06-08T00:45:52.837Z,99999.06
2023-06-08T00:50:58.648Z,100002.78
2023-06-08T00:56:02.460Z,99997.84
2023-06-08T01:01:06.091Z,99986.31
2023-06-08T01:06:09.624Z,99993.72
2023-06-08T01:11:47.376Z,99993.94
2023-06-08T01:16:53.288Z,99992.09
2023-06-08T01:22:28.232Z,99984.22
2023-06-08T01:27:38.437Z,99983.41
2023-06-08T01:32:42.476Z,99987.53
2023-06-08T01:37:53.616Z,99990.41
2023-06-08T01:42:57.071Z,99995.78
2023-06-08T01:48:07.732Z,99994.13
2023-06-08T01:53:12.353Z,99992.31
2023-06-08T01:58:15.465Z,100001.59
2023-06-08T02:03:18.431Z,99987.13
2023-06-08T02:08:21.970Z,99981.53
2023-06-08T02:13:24.958Z,99994.13
2023-06-08T02:18:28.460Z,100000.31
2023-06-08T02:23:31.571Z,99996.41
2023-06-08T02:28:35.090Z,99995.78
2023-06-08T02:33:38.733Z,100003.41
2023-06-08T02:38:41.617Z,99992.91
2023-06-08T02:43:44.545Z,99994.56
2023-06-08T02:48:47.898Z,99985.06
2023-06-08T02:53:51.047Z,99986.69
2023-06-08T02:58:55.513Z,99987.53
2023-06-08T03:03:58.618Z,99987.94
2023-06-08T03:09:01.549Z,99983.41
2023-06-08T03:14:04.693Z,99981.31
2023-06-08T03:19:08.058Z,99985.47
2023-06-08T03:24:11.693Z,99984.22
2023-06-08T03:29:14.868Z,99977.22
2023-06-08T03:34:18.924Z,99984.63
2023-06-08T03:39:22.613Z,99986.06
2023-06-08T03:44:25.656Z,99992.06
2023-06-08T03:49:28.545Z,99990.78
2023-06-08T03:54:32.084Z,99991.81
2023-06-08T03:59:35.157Z,99991.38
2023-06-08T04:04:40.549Z,99995.28
2023-06-08T04:09:44.208Z,99989.09
2023-06-08T04:14:47.087Z,99992.41
2023-06-08T04:19:51.018Z,99988.00
2023-06-08T04:24:54.062Z,99992.31
2023-06-08T04:29:58.528Z,99990.63
2023-06-08T04:35:01.560Z,99999.88
2023-06-08T04:40:05.734Z,99996.97
2023-06-08T04:45:09.685Z,99994.44
2023-06-08T04:50:12.832Z,99998.97
2023-06-08T04:55:15.965Z,100002.47
2023-06-08T05:00:19.889Z,99995.00
2023-06-08T05:05:22.816Z,100004.06
2023-06-08T05:10:25.779Z,100003.19
2023-06-08T05:15:31.875Z,100000.03
2023-06-08T05:20:34.884Z,100007.22
2023-06-08T05:25:38.614Z,99999.78
2023-06-08T05:30:41.703Z,100010.28
2023-06-08T05:35:44.618Z,100003.44
2023-06-08T05:40:47.684Z,100008.53
2023-06-08T05:45:50.600Z,100008.53
2023-06-08T05:50:53.564Z,100001.13
2023-06-08T05:55:56.670Z,100004.66
2023-06-08T06:01:00.533Z,99993.28
2023-06-08T06:06:03.649Z,99998.00
2023-06-08T06:11:07.114Z,99999.00
2023-06-08T06:16:10.635Z,100010.13
2023-06-08T06:21:15.256Z,100003.31
2023-06-08T06:26:18.143Z,100017.34
2023-06-08T06:31:21.212Z,100011.97
2023-06-08T06:36:24.743Z,100008.88
2023-06-08T06:41:28.157Z,100012.09
2023-06-08T06:46:31.075Z,100006.50
2023-06-08T06:51:34.289Z,100008.16
2023-06-08T06:56:37.169Z,100012.88
2023-06-08T07:01:40.348Z,100009.72
2023-06-08T07:06:44.235Z,99996.03
2023-06-08T07:11:53.091Z,100007.50
2023-06-08T07:17:05.298Z,99990.25
2023-06-08T07:22:10.479Z,100002.34
2023-06-08T07:27:27.375Z,100005.34
2023-06-08T07:32:31.285Z,100000.19
2023-06-08T07:37:37.459Z,99998.75
2023-06-08T07:42:40.620Z,100001.91
2023-06-08T07:47:43.823Z,99997.34
2023-06-08T07:52:47.110Z,99998.16
2023-06-08T07:57:49.989Z,99991.97
2023-06-08T08:02:52.959Z,100003.03
2023-06-08T08:07:56.300Z,99998.41
2023-06-08T08:12:59.416Z,100000.66
2023-06-08T08:18:03.267Z,99987.34
2023-06-08T08:23:07.201Z,99994.41
2023-06-08T08:28:10.029Z,99985.56
2023-06-08T08:33:17.499Z,99990.56
2023-06-08T08:38:20.728Z,99992.44
2023-06-08T08:43:36.645Z,99984.56
2023-06-08T08:48:46.887Z,99984.94
2023-06-08T08:53:52.325Z,99991.38
2023-06-08T08:58:56.039Z,99996.28
2023-06-08T09:04:00.686Z,99986.84
2023-06-08T09:09:04.715Z,99994.34
2023-06-08T09:14:10.206Z,99982.59
2023-06-08T09:19:13.677Z,99975.00
2023-06-08T09:24:20.519Z,99967.41
2023-06-08T09:29:39.216Z,99947.81
2023-06-08T09:35:02.102Z,99944.03
2023-06-08T09:40:07.456Z,99947.53
2023-06-08T09:45:15.026Z,99946.47
2023-06-08T09:50:20.186Z,99946.03
2023-06-08T09:55:24.844Z,99936.06
2023-06-08T10:00:30.203Z,99938.16
2023-06-08T10:05:34.653Z,99925.69
2023-06-08T10:10:39.351Z,99915.44
2023-06-08T10:15:43.668Z,99909.59
2023-06-08T10:20:47.174Z,99896.59
2023-06-08T10:25:52.172Z,99894.25
2023-06-08T10:30:55.064Z,99878.34
2023-06-08T10:36:13.300Z,99881.50
2023-06-08T10:41:39.537Z,99885.81
2023-06-08T10:46:44.165Z,99875.63
2023-06-08T10:51:47.118Z,99859.09
2023-06-08T10:57:12.313Z,99869.22
2023-06-08T11:02:17.634Z,99854.03
2023-06-08T11:07:27.257Z,99848.97
2023-06-08T11:12:31.423Z,99853.91
2023-06-08T11:17:51.743Z,99849.91
2023-06-08T11:22:54.976Z,99853.00
2023-06-08T11:27:59.216Z,99850.03
2023-06-08T11:33:09.846Z,99846.25
2023-06-08T11:38:13.213Z,99836.91
2023-06-08T11:43:16.820Z,99832.44
2023-06-08T11:48:24.553Z,99826.47
2023-06-08T11:53:28.082Z,99830.44
2023-06-08T11:58:34.018Z,99834.44
2023-06-08T12:03:49.646Z,99827.91
2023-06-08T12:08:53.816Z,99835.91
2023-06-08T12:13:57.344Z,99854.59
2023-06-08T12:19:00.900Z,99856.19
2023-06-08T12:24:04.531Z,99850.16
2023-06-08T12:29:10.904Z,99853.00
2023-06-08T12:34:14.001Z,99836.81
2023-06-08T12:39:17.344Z,99826.25
2023-06-08T12:44:20.542Z,99830.91
2023-06-08T12:49:24.127Z,99829.81
2023-06-08T12:54:27.165Z,99832.44
2023-06-08T12:59:30.907Z,99839.03
2023-06-08T13:04:34.118Z,99830.25
2023-06-08T13:09:39.464Z,99843.88
2023-06-08T13:14:42.549Z,99836.53
2023-06-08T13:19:46.623Z,99846.25
2023-06-08T13:24:50.248Z,99830.34
2023-06-08T13:29:53.206Z,99823.59
2023-06-08T13:34:59.496Z,99826.03
2023-06-08T13:40:02.539Z,99824.28
2023-06-08T13:45:06.670Z,99815.03
2023-06-08T13:50:11.949Z,99804.66
2023-06-08T13:55:15.383Z,99802.03
2023-06-08T14:00:18.789Z,99802.56
2023-06-08T14:05:22.143Z,99798.25
2023-06-08T14:10:25.394Z,99797.78
2023-06-08T14:15:28.341Z,99790.81
2023-06-08T14:20:35.198Z,99775.28
2023-06-08T14:25:38.087Z,99767.69
2023-06-08T14:30:42.870Z,99764.03
2023-06-08T14:35:47.225Z,99763.41
2023-06-08T14:40:50.453Z,99767.56
2023-06-08T14:45:53.362Z,99763.22
2023-06-08T14:50:57.227Z,99773.81
2023-06-08T14:56:00.207Z,99768.41
2023-06-08T15:01:03.100Z,99753.91
2023-06-08T15:06:06.322Z,99734.91
2023-06-08T15:11:10.127Z,99729.06
2023-06-08T15:16:13.317Z,99722.09
2023-06-08T15:21:16.457Z,99707.13
2023-06-08T15:26:19.471Z,99714.13
2023-06-08T15:31:23.114Z,99726.03
2023-06-08T15:36:26.495Z,99703.34
2023-06-08T15:41:29.654Z,99718.94
2023-06-08T15:46:35.163Z,99724.50
2023-06-08T15:51:43.325Z,99709.66
2023-06-08T15:56:46.371Z,99706.53
2023-06-08T16:01:49.273Z,99701.13
2023-06-08T16:06:52.249Z,99700.59
2023-06-08T16:11:55.191Z,99699.75
2023-06-08T16:16:58.426Z,99706.72
2023-06-08T16:22:04.236Z,99708.88
2023-06-08T16:27:07.503Z,99705.81
2023-06-08T16:32:11.140Z,99717.91
2023-06-08T16:37:14.148Z,99714.53
2023-06-08T16:42:19.660Z,99708.91
2023-06-08T16:47:25.453Z,99719.78
2023-06-08T16:52:28.464Z,99708.19
2023-06-08T16:57:33.748Z,99715.31
2023-06-08T17:02:37.393Z,99710.44
2023-06-08T17:07:42.910Z,99714.31
2023-06-08T17:12:46.103Z,99727.72
2023-06-08T17:17:49.113Z,99737.97
2023-06-08T17:22:52.230Z,99730.03
2023-06-08T17:27:55.342Z,99740.75
2023-06-08T17:32:59.497Z,99737.41
2023-06-08T17:38:02.499Z,99735.19
2023-06-08T17:43:05.430Z,99724.28
2023-06-08T17:48:08.431Z,99727.97
2023-06-08T17:53:13.444Z,99725.16
2023-06-08T17:58:17.067Z,99712.31
2023-06-08T18:03:20.117Z,99711.66
2023-06-08T18:08:23.289Z,99720.72
2023-06-08T18:13:26.795Z,99720.09
2023-06-08T18:18:29.775Z,99725.66
2023-06-08T18:23:32.964Z,99736.03
2023-06-08T18:28:36.148Z,99739.44
2023-06-08T18:33:39.848Z,99747.91
2023-06-08T18:38:42.903Z,99746.13
2023-06-08T18:43:46.190Z,99759.72
2023-06-08T18:48:49.054Z,99771.91
2023-06-08T18:53:52.439Z,99774.38
2023-06-08T18:58:56.690Z,99764.91
2023-06-08T19:03:59.992Z,99766.09
2023-06-08T19:09:03.178Z,99771.34
2023-06-08T19:14:06.122Z,99765.13
2023-06-08T19:19:09.490Z,99765.47
2023-06-08T19:24:12.879Z,99769.44
2023-06-08T19:29:16.032Z,99784.88
2023-06-08T19:34:20.311Z,99790.38
2023-06-08T19:39:23.625Z,99783.97
2023-06-08T19:44:26.846Z,99780.44
2023-06-08T19:49:31.894Z,99787.41
2023-06-08T19:54:34.854Z,99784.81
2023-06-08T19:59:39.888Z,99781.53
2023-06-08T20:04:42.797Z,99793.19
2023-06-08T20:09:46.528Z,99795.13
2023-06-08T20:14:49.330Z,99782.16
2023-06-08T20:19:53.918Z,99778.66
2023-06-08T20:24:57.651Z,99775.56
2023-06-08T20:30:00.602Z,99771.63
2023-06-08T20:35:06.878Z,99772.88
2023-06-08T20:40:12.236Z,99775.56
2023-06-08T20:45:15.131Z,99776.84
2023-06-08T20:50:18.202Z,99781.28
2023-06-08T20:55:22.656Z,99786.88
2023-06-08T21:00:25.907Z,99787.97
2023-06-08T21:05:32.489Z,99799.56
2023-06-08T21:10:37.008Z,99795.84
2023-06-08T21:15:39.895Z,99795.38
2023-06-08T21:20:42.736Z,99800.53
2023-06-08T21:25:45.641Z,99804.03
2023-06-08T21:30:48.689Z,99804.41
2023-06-08T21:36:09.523Z,99806.66
2023-06-08T21:41:13.697Z,99802.47
2023-06-08T21:46:16.522Z,99802.22
2023-06-08T21:51:19.558Z,99798.88
2023-06-08T21:56:22.704Z,99797.81
2023-06-08T22:01:26.818Z,99795.13
2023-06-08T22:06:30.026Z,99795.97
2023-06-08T22:11:33.237Z,99796.19
2023-06-08T22:16:38.785Z,99797.81
2023-06-08T22:21:42.192Z,99787.66
2023-06-08T22:26:46.846Z,99787.91
2023-06-08T22:31:50.018Z,99788.50
2023-06-08T22:36:53.391Z,99792.56
2023-06-08T22:41:56.165Z,99784.31
2023-06-08T22:47:00.824Z,99782.88
2023-06-08T22:52:04.216Z,99787.66
2023-06-08T22:57:07.877Z,99775.28
2023-06-08T23:02:10.994Z,99762.03
2023-06-08T23:07:16.078Z,99778.66
2023-06-08T23:12:20.240Z,99771.25
2023-06-08T23:17:26.531Z,99753.00
2023-06-08T23:22:30.608Z,99748.44
2023-06-08T23:27:34.313Z,99741.91
2023-06-08T23:32:37.467Z,99737.50
2023-06-08T23:37:40.911Z,99727.31
2023-06-08T23:42:44.080Z,99716.13
2023-06-08T23:47:47.129Z,99713.44
2023-06-08T23:52:49.971Z,99725.69
2023-06-08T23:57:53.103Z,99734.00
